San Antonio, Valles Caldera, New Mexico Weather observations

Data are for 10 minute period ending at time listed.
 Day   Time   Solar   Ave.   Ave.  Ave.  Vector  Max.   Baro.   Total    
  of    of     Rad.   Air    Rel.  Wind   Wind   Wind  Press.  Precip.   
Year   Day            Temp.  Hum.  Speed  Dir.   Gust                    
2015   (MST)  Kw/m2    F      %     mph   deg.    mph    mb.     in.     
-------------------------------------------------------------------------
  60   21:20   0.00   39.8    64    6.8   121    10.8   395.5    0.00 
  60   21:30   0.00   37.4    72    2.0   319     5.4   395.9    0.00 
  60   21:40   0.00   34.1    82    2.7    26     4.8   396.2    0.00 
  60   21:50   0.00   33.6    83    0.9    90     3.0   396.5    0.00 
  60   22:00   0.00   33.0    85    1.8   109     3.6   396.5    0.00 
  60   22:10   0.00   32.2    87    1.1   282     3.0   396.9    0.00 
  60   22:20   0.00   31.2    89    1.7    19     4.2   396.9    0.00 
  60   22:30   0.00   32.0    91    2.2   341     4.8   397.2    0.00 
  60   22:40   0.00   31.4    90    1.5   352     3.0   397.2    0.00 
  60   22:50   0.00   31.1    91    1.3    19     3.0   397.2    0.00 
  60   23:00   0.00   31.5    92    1.3    20     3.6   397.6    0.00 
  60   23:10   0.00   31.8    92    2.4    32     4.8   397.6    0.00 
  60   23:20   0.00   32.2    90    1.9   341     4.2   397.2    0.00 
  60   23:30   0.00   31.4    90    2.3    13     4.8   397.2    0.00 
  60   23:40   0.00   30.7    90    2.0    22     3.6   397.2    0.00 
  60   23:50   0.00   30.9    92    3.2   342     6.0   397.6    0.00 
  61    0:00   0.00   30.4    92    1.9    27     4.2   397.6    0.00 
  61    0:10   0.00   31.2    92    1.5   330     5.4   397.2    0.00 
  61    0:20   0.00   31.1    90    1.9    22     4.2   397.2    0.00 
  61    0:30   0.00   31.0    89    3.6     9     6.6   397.2    0.00 
  61    0:40   0.00   31.1    90    2.7    61     6.0   397.2    0.00 
  61    0:50   0.00   30.1    89    2.2    36     4.2   397.2    0.00 
  61    1:00   0.00   29.1    91    2.4   336     4.8   397.2    0.00 
  61    1:10   0.00   29.2    93    3.1   354     6.0   397.2    0.00 
  61    1:20   0.00   29.2    93    2.7    37     5.4   397.6    0.00 
  61    1:30   0.00   29.3    92    3.5    42     7.2   397.6    0.00 
  61    1:40   0.00   31.4    84    3.3   101     9.0   396.5    0.00 
  61    1:50   0.00   31.3    84    3.5    62     6.6   396.5    0.00 
  61    2:00   0.00   32.4    79    3.7    96     6.0   396.2    0.00 
  61    2:10   0.00   33.2    79    2.1    30     6.0   395.9    0.00 
  61    2:20   0.00   33.4    79    2.3    63     6.6   395.9    0.00 
  61    2:30   0.00   34.7    71    2.9    77     4.8   395.5    0.00 
  61    2:40   0.00   31.8    80    3.1    59     7.2   395.9    0.00 
  61    2:50   0.00   31.5    82    1.8    73     7.2   396.2    0.00 
  61    3:00   0.00   35.7    68    5.0    85     8.4   395.5    0.00 
  61    3:10   0.00   34.5    70    3.3   104     9.0   395.2    0.00 
  61    3:20   0.00   35.6    68    3.3    58     7.2   395.5    0.00 
  61    3:30   0.00   35.7    68    3.1    55     7.2   395.5    0.00 
  61    3:40   0.00   33.9    75    3.5    38     6.0   395.5    0.00 
  61    3:50   0.00   33.9    74    3.6    74     6.0   395.5    0.00 
  61    4:00   0.00   32.1    77    2.8   121    10.2   395.9    0.00 
  61    4:10   0.00   32.6    76    3.3    36     5.4   395.9    0.00 
  61    4:20   0.00   32.7    75    2.7    48     6.6   395.9    0.00 
  61    4:30   0.00   34.3    67    3.8    82     7.8   395.2    0.00 
  61    4:40   0.00   36.0    58    4.3   108     9.6   394.9    0.00 
  61    4:50   0.00   36.0    58    4.0    88     8.4   394.9    0.00 
  61    5:00   0.00   36.7    56    4.4    84     8.4   394.9    0.00 
  61    5:10   0.00   34.5    70    2.2    13     4.8   395.5    0.00 
  61    5:20   0.00   33.2    76    3.4    35     4.8   395.5    0.00 
  61    5:30   0.00   33.1    74    2.7    66     5.4   395.5    0.00 
  61    5:40   0.00   32.1    78    2.0    59     4.2   395.9    0.00 
  61    5:50   0.00   33.2    72    3.0    67     5.4   395.5    0.00 
  61    6:00   0.00   33.9    67    4.4   127     7.2   395.2    0.00 
  61    6:10   0.00   35.9    56    6.2   109    13.1   394.9    0.00 
  61    6:20   0.00   37.0    52    6.3   132    11.9   394.5    0.00 
  61    6:30   0.00   36.8    55    3.5   138    12.5   395.2    0.00 
  61    6:40   0.00   36.3    57    2.1   106     8.4   395.2    0.00 
  61    6:50   0.00   36.4    55    1.9   147     6.0   394.9    0.00 
  61    7:00   0.01   36.5    56    2.9    77     9.0   394.9    0.00 
  61    7:10   0.01   36.7    56    5.5   107    14.3   395.2    0.00 
  61    7:20   0.02   37.9    50    4.3   124    10.8   394.9    0.00 
  61    7:30   0.04   38.9    46    5.5   131    10.8   394.9    0.00 
  61    7:40   0.07   39.2    45    6.0   146    12.5   394.9    0.00 
  61    7:50   0.14   39.8    44    5.7   142    13.7   395.2    0.00 
  61    8:00   0.27   41.8    42    5.1   162    11.9   395.2    0.00 
  61    8:10   0.26   41.9    41    5.8   174    16.1   395.2    0.00 
  61    8:20   0.19   40.6    44    5.5   196    14.3   395.2    0.00 
  61    8:30   0.24   40.8    44    4.1   181     9.6   395.2    0.00 
  61    8:40   0.35   41.2    44    5.0   198    10.8   395.2    0.00 
  61    8:50   0.53   44.4    40    3.3   234     7.8   395.5    0.00 
  61    9:00   0.51   46.5    38    4.5   226    10.2   395.9    0.00 
  61    9:10   0.46   43.0    43    6.0   236     9.0   395.9    0.00 
  61    9:20   0.50   42.5    44    4.9   213    11.3   395.5    0.00 
  61    9:30   0.57   44.3    42    4.7   240    10.2   395.9    0.00 
  61    9:40   0.61   46.7    39    3.6   278     6.6   396.2    0.00 
  61    9:50   0.55   49.9    34    2.9   266     9.6   395.9    0.00 
  61   10:00   0.37   46.7    39    3.0   281     7.8   395.9    0.00 
  61   10:10   0.38   44.5    44    4.9   236    14.9   395.9    0.00 
  61   10:20   0.41   43.3    47    2.9   253     8.4   395.9    0.00 
  61   10:30   0.52   46.1    42    3.0   235    12.5   395.9    0.00 
  61   10:40   0.54   44.1    45    4.1   205    13.1   396.2    0.00 
  61   10:50   0.55   44.3    44    5.7   155    19.1   396.2    0.00 
  61   11:00   0.39   42.1    48    7.3   168    17.3   395.9    0.00 
  61   11:10   0.57   43.6    46    4.4   173     9.6   395.9    0.00 
  61   11:20   0.66   43.2    48    6.6   214    16.7   396.2    0.00 
  61   11:30   0.57   42.4    49    7.8   206    17.3   395.9    0.00 
  61   11:40   0.65   42.6    50    7.7   226    15.5   396.2    0.00 
  61   11:50   0.82   44.8    46    6.6   253    13.1   396.2    0.00 
  61   12:00   0.51   43.8    47    6.8   233    13.7   396.2    0.00 
  61   12:10   0.36   41.9    52    7.5   235    17.3   395.9    0.00 
  61   12:20   0.35   41.5    53    6.0   221    14.3   395.9    0.00 
  61   12:30   0.32   41.9    53    5.4   222    14.3   395.9    0.00 
  61   12:40   0.31   42.2    52    5.5   229    12.5   395.9    0.00 
  61   12:50   0.61   42.4    54    6.0   219    11.9   395.9    0.00 
  61   13:00   0.54   43.7    51    5.3   154    13.7   396.2    0.00 
  61   13:10   0.69   44.2    51    6.7   214    14.3   396.2    0.00 
  61   13:20   0.71   45.0    51    4.7   236     9.0   396.2    0.00 
  61   13:30   0.63   45.2    50    7.6   200    17.9   396.2    0.00 
  61   13:40   0.56   42.3    54    8.2   198    15.5   396.2    0.00 
  61   13:50   0.43   41.6    56    6.1   219    12.5   396.2    0.00 
  61   14:00   0.38   41.1    57    7.4   219    17.9   396.2    0.00 
  61   14:10   0.44   40.5    59    7.6   222    17.3   395.9    0.00 
  61   14:20   0.57   41.7    57    7.6   203    17.9   396.2    0.00 
  61   14:30   0.55   42.3    56    9.3   216    17.9   396.2    0.00 
  61   14:40   0.51   42.5    56    8.3   214    20.3   396.2    0.00 
  61   14:50   0.42   42.4    57    8.3   226    16.7   396.2    0.00 
  61   15:00   0.21   41.3    59    8.8   227    17.9   395.9    0.00 
  61   15:10   0.23   41.3    59    7.6   212    22.1   395.9    0.00 
  61   15:20   0.33   41.4    59   10.1   164    20.9   395.9    0.00 
  61   15:30   0.20   41.3    59   10.4   146    19.7   395.9    0.00 
  61   15:40   0.16   41.2    60    7.2   168    17.3   395.9    0.00 
  61   15:50   0.15   40.4    64   11.8   171    20.3   395.9    0.00 
  61   16:00   0.14   39.8    66    8.8   157    16.1   395.9    0.00 
  61   16:10   0.15   40.5    63    8.2   126    20.9   395.9    0.00 
  61   16:20   0.13   40.8    62    8.3   140    16.7   395.9    0.00 
  61   16:30   0.13   41.1    62    9.7   128    21.5   395.9    0.00 
  61   16:40   0.09   41.3    62    6.5   196    14.9   395.5    0.00 
  61   16:50   0.06   40.9    64    7.7   183    21.5   395.9    0.00 
  61   17:00   0.07   40.2    67    7.4   208    19.1   395.9    0.00 
  61   17:10   0.03   40.1    69    8.2   181    20.3   395.9    0.00 
  61   17:20   0.05   40.3    69    7.3   197    21.5   395.9    0.00 
  61   17:30   0.03   40.3    70   10.7   202    20.3   395.9    0.00 
  61   17:40   0.02   40.5    70   12.2   188    29.8   395.9    0.00 
  61   17:50   0.01   40.4    69   12.2   182    23.9   395.9    0.00 
  61   18:00   0.00   40.4    69    9.8   180    19.1   395.9    0.00 
  61   18:10   0.00   40.4    69   11.3   188    22.7   395.9    0.00 
  61   18:20   0.00   40.2    70    9.9   202    21.5   395.9    0.00 
  61   18:30   0.00   40.1    71   11.9   220    24.5   395.9    0.00 
  61   18:40   0.00   38.5    77   11.0   212    20.3   396.2    0.00 
  61   18:50   0.00   37.2    82    8.3   201    18.5   396.5    0.00 
  61   19:00   0.00   37.0    83    6.4   184    12.5   396.5    0.00 
  61   19:10   0.00   37.8    80    8.2   204    19.7   396.5    0.00 
  61   19:20   0.00   38.2    79    8.6   176    23.3   396.2    0.00 
  61   19:30   0.00   37.9    80    9.4   202    19.1   396.5    0.00 
  61   19:40   0.00   37.8    81    6.4   195    16.7   396.5    0.00 
  61   19:50   0.00   37.7    81    9.7   185    20.3   396.5    0.00 
  61   20:00   0.00   37.3    82   12.2   190    35.2   396.5    0.00 
  61   20:10   0.00   33.3    89   16.8   285    28.0   396.9    0.00 
  61   20:20   0.00   31.5    93   12.9   302    31.6   397.6    0.00 
  61   20:30   0.00   30.6    94    0.0     0     0.0   397.9    0.00 
  61   20:40   0.00   30.2    94    0.0     0     0.0   397.9    0.00 
  61   20:50   0.00   29.6    94    0.0     0     0.0   397.9    0.00 
  61   21:00   0.00   29.2    94    0.0     0     0.0   397.9    0.00 
  61   21:10   0.00   28.9    93    0.0     0     0.0   397.6    0.00 

Return to San Antonio, Valles Caldera graphs page.


Western Regional Climate Center,wrcc@dri.edu